KQWM/QWM METAR and TAF weather

Enter ICAO airport designator
Station Type Date Time Source
KQWM METAR 2021/05/13 05:56 UTC NOAA

KQWM 130556Z 31007KT 6000 HZ CLR 38/04 A2973 RMK AO2A SLP062 WND DATA ESTMD T03810036 10381 20277


Station Type Date Time Source
KQWM Decoded METAR 2021/05/13 05:56 UTC NOAA

Station name not available
May 13, 2021 - 01:56 AM EDT / 2021.05.13 0556 UTC
Wind: from the NW (310 degrees) at 8 MPH (7 KT):0
Visibility: 3 mile(s):0
Sky conditions: clear
Weather: haze
Temperature: 100.6 F (38.1 C)
Dew Point: 38.5 F (3.6 C)
Relative Humidity: 11%
Pressure (altimeter): 29.73 in. Hg (1006 hPa)
ob: KQWM 130556Z 31007KT 6000 HZ CLR 38/04 A2973 RMK AO2A SLP062 WND DATA ESTMD T03810036 10381 20277
cycle: 6

Station Type Date Time Source
KQWM TAF 2016/03/17 15:00 UTC NOAA

TAF KQWM 171500Z 1715/1821 28009KT 9000 HZ SKC QNH2995INS
TEMPO 1715/1717 27015G20KT
BECMG 1807/1808 29012G20KT 8000 HZ SKC QNH2998INS
BECMG 1814/1815 29009KT 9999 NSW SKC QNH3002INS TX26/1811Z TN13/1803Z

Example: see airport list